createdAt,value
2023-08-29T00:02:29.491Z,14.52
2023-08-29T00:05:11.039Z,14.45
2023-08-29T00:10:42.363Z,14.43
2023-08-29T00:13:25.406Z,14.42
2023-08-29T00:16:11.194Z,14.40
2023-08-29T00:18:54.363Z,14.37
2023-08-29T00:21:41.432Z,14.32
2023-08-29T00:24:25.195Z,14.33
2023-08-29T00:27:04.902Z,14.32
2023-08-29T00:29:42.583Z,14.26
2023-08-29T00:32:21.803Z,14.30
2023-08-29T00:35:04.849Z,14.28
2023-08-29T00:37:46.478Z,14.22
2023-08-29T00:40:28.310Z,14.21
2023-08-29T00:43:13.895Z,14.18
2023-08-29T00:45:59.686Z,14.13
2023-08-29T00:51:39.434Z,14.07
2023-08-29T00:54:22.282Z,14.03
2023-08-29T00:57:02.330Z,14.01
2023-08-29T00:59:42.583Z,13.95
2023-08-29T01:02:20.928Z,13.92
2023-08-29T01:05:01.050Z,13.93
2023-08-29T01:10:32.819Z,13.87
2023-08-29T01:13:25.607Z,13.84
2023-08-29T01:16:08.273Z,13.84
2023-08-29T01:18:51.178Z,13.80
2023-08-29T01:22:05.875Z,13.75
2023-08-29T01:24:56.650Z,13.78
2023-08-29T01:27:42.178Z,13.77
2023-08-29T01:30:25.584Z,13.74
2023-08-29T01:33:09.148Z,13.75
2023-08-29T01:35:59.508Z,13.70
2023-08-29T01:38:42.321Z,13.67
2023-08-29T01:41:26.357Z,13.67
2023-08-29T01:44:19.469Z,13.65
2023-08-29T01:47:03.674Z,13.62
2023-08-29T01:49:47.536Z,13.62
2023-08-29T01:52:26.949Z,13.65
2023-08-29T01:55:09.437Z,13.64
2023-08-29T01:57:51.255Z,13.63
2023-08-29T02:00:37.219Z,13.58
2023-08-29T02:03:19.566Z,13.58
2023-08-29T02:06:04.650Z,13.59
2023-08-29T02:08:45.364Z,13.57
2023-08-29T02:11:28.013Z,13.55
2023-08-29T02:14:12.634Z,13.56
2023-08-29T02:19:48.517Z,13.51
2023-08-29T02:22:32.582Z,13.51
2023-08-29T02:25:14.885Z,13.48
2023-08-29T02:30:50.016Z,13.43
2023-08-29T02:33:35.040Z,13.37
2023-08-29T02:36:19.733Z,13.42
2023-08-29T02:39:02.655Z,13.39
2023-08-29T02:41:48.894Z,13.37
2023-08-29T02:47:24.640Z,13.40
2023-08-29T02:50:10.071Z,13.35
2023-08-29T02:52:53.333Z,13.29
2023-08-29T02:58:27.614Z,13.22
2023-08-29T03:01:20.336Z,13.18
2023-08-29T03:04:05.747Z,13.19
2023-08-29T03:06:52.851Z,13.19
2023-08-29T03:09:40.605Z,13.19
2023-08-29T03:15:14.469Z,13.18
2023-08-29T03:18:00.707Z,13.19
2023-08-29T03:20:56.658Z,13.19
2023-08-29T03:23:42.949Z,13.19
2023-08-29T03:26:23.368Z,13.18
2023-08-29T03:29:10.920Z,13.16
2023-08-29T03:31:57.012Z,13.16
2023-08-29T03:34:37.996Z,13.09
2023-08-29T03:37:20.856Z,12.99
2023-08-29T03:40:14.212Z,13.00
2023-08-29T03:43:00.448Z,12.98
2023-08-29T03:45:55.840Z,12.94
2023-08-29T03:48:40.672Z,12.96
2023-08-29T03:51:27.013Z,12.92
2023-08-29T03:54:11.508Z,12.85
2023-08-29T04:02:40.301Z,13.01
2023-08-29T04:08:23.378Z,12.95
2023-08-29T04:11:02.571Z,12.89
2023-08-29T04:13:46.280Z,12.91
2023-08-29T04:16:27.201Z,12.95
2023-08-29T04:19:16.849Z,12.88
2023-08-29T04:24:52.102Z,12.74
2023-08-29T04:27:36.046Z,12.82
2023-08-29T04:30:19.821Z,12.80
2023-08-29T04:33:04.032Z,12.75
2023-08-29T04:35:46.273Z,12.80
2023-08-29T04:41:19.836Z,12.80
2023-08-29T04:44:08.057Z,12.78
2023-08-29T04:46:50.321Z,12.71
2023-08-29T04:49:29.838Z,12.62
2023-08-29T04:52:10.619Z,12.53
2023-08-29T04:54:56.534Z,12.50
2023-08-29T04:57:37.753Z,12.55
2023-08-29T05:06:41.907Z,12.58
2023-08-29T05:09:31.399Z,12.70
2023-08-29T05:12:13.750Z,12.80
2023-08-29T05:14:53.277Z,12.89
2023-08-29T05:17:34.268Z,12.99
2023-08-29T05:20:15.563Z,13.11
2023-08-29T05:23:02.196Z,13.19
2023-08-29T05:25:39.106Z,13.41
2023-08-29T05:28:19.334Z,13.55
2023-08-29T05:31:16.257Z,13.87
2023-08-29T05:33:57.365Z,13.87
2023-08-29T05:36:39.764Z,13.97
2023-08-29T05:39:22.959Z,14.02
2023-08-29T05:41:58.440Z,14.07
2023-08-29T05:44:43.725Z,14.13
2023-08-29T05:47:19.961Z,14.17
2023-08-29T05:50:07.857Z,14.27
2023-08-29T05:52:43.987Z,14.34
2023-08-29T05:55:22.327Z,14.40
2023-08-29T05:57:56.919Z,14.42
2023-08-29T06:00:35.849Z,14.40
2023-08-29T06:05:59.677Z,14.44
2023-08-29T06:08:34.518Z,14.43
2023-08-29T06:11:21.450Z,14.43
2023-08-29T06:13:59.068Z,14.50
2023-08-29T06:16:36.375Z,14.53
2023-08-29T06:19:15.105Z,14.64
2023-08-29T06:21:52.286Z,14.70
2023-08-29T06:24:28.131Z,14.75
2023-08-29T06:27:04.900Z,14.76
2023-08-29T06:29:40.758Z,14.82
2023-08-29T06:32:17.075Z,14.93
2023-08-29T06:34:53.757Z,15.04
2023-08-29T06:37:38.577Z,15.22
2023-08-29T06:40:21.013Z,15.31
2023-08-29T06:43:01.731Z,15.44
2023-08-29T06:45:53.653Z,15.55
2023-08-29T06:48:31.848Z,15.63
2023-08-29T06:51:07.258Z,15.76
2023-08-29T06:53:43.007Z,15.92
2023-08-29T06:56:27.792Z,16.00
2023-08-29T06:59:06.369Z,16.03
2023-08-29T07:01:45.413Z,16.15
2023-08-29T07:04:20.576Z,16.13
2023-08-29T07:07:06.018Z,16.17
2023-08-29T07:09:43.899Z,16.19
2023-08-29T07:12:20.281Z,16.26
2023-08-29T07:15:01.047Z,16.43
2023-08-29T07:17:38.906Z,16.60
2023-08-29T07:20:17.614Z,16.65
2023-08-29T07:22:54.640Z,16.75
2023-08-29T07:25:46.116Z,16.89
2023-08-29T07:28:22.607Z,17.03
2023-08-29T07:30:57.913Z,17.10
2023-08-29T07:33:35.025Z,17.17
2023-08-29T07:36:13.967Z,17.24
2023-08-29T07:38:50.450Z,17.29
2023-08-29T07:41:23.724Z,17.32
2023-08-29T07:44:10.314Z,17.32
2023-08-29T07:47:03.149Z,17.35
2023-08-29T07:49:54.449Z,17.37
2023-08-29T07:52:31.203Z,17.47
2023-08-29T07:55:16.753Z,17.51
2023-08-29T07:57:55.084Z,17.54
2023-08-29T08:00:31.283Z,17.62
2023-08-29T08:03:07.413Z,17.66
2023-08-29T08:05:42.344Z,17.71
2023-08-29T08:08:20.932Z,17.85
2023-08-29T08:15:07.334Z,18.01
2023-08-29T08:18:07.676Z,18.07
2023-08-29T08:21:04.147Z,18.13
2023-08-29T08:26:55.637Z,18.23
2023-08-29T08:29:47.709Z,18.32
2023-08-29T08:32:50.260Z,18.30
2023-08-29T08:35:57.452Z,18.37
2023-08-29T08:38:54.523Z,18.40
2023-08-29T08:41:44.073Z,18.40
2023-08-29T08:44:34.039Z,18.44
2023-08-29T08:47:28.820Z,18.45
2023-08-29T08:50:42.282Z,18.55
2023-08-29T08:53:33.180Z,18.60
2023-08-29T08:56:21.463Z,18.66
2023-08-29T08:59:08.929Z,18.68
2023-08-29T09:05:02.847Z,18.94
2023-08-29T09:08:02.576Z,18.98
2023-08-29T09:10:57.319Z,19.00
2023-08-29T09:13:49.651Z,19.09
2023-08-29T09:16:45.606Z,19.13
2023-08-29T09:19:37.729Z,19.22
2023-08-29T09:22:29.607Z,19.49
2023-08-29T09:25:23.690Z,19.57
2023-08-29T09:28:18.151Z,19.49
2023-08-29T09:34:22.541Z,19.99
2023-08-29T09:37:15.839Z,20.26
2023-08-29T09:40:35.292Z,20.28
2023-08-29T09:43:23.813Z,20.24
2023-08-29T09:46:26.483Z,20.40
2023-08-29T09:52:25.168Z,20.45
2023-08-29T09:55:21.923Z,20.48
2023-08-29T09:58:18.436Z,20.44
2023-08-29T10:01:23.945Z,20.35
2023-08-29T10:04:25.428Z,20.27
2023-08-29T10:07:18.917Z,20.35
2023-08-29T10:10:14.001Z,20.41
2023-08-29T10:13:09.647Z,20.48
2023-08-29T10:16:03.966Z,20.47
2023-08-29T10:18:58.907Z,20.44
2023-08-29T10:21:56.244Z,20.36
2023-08-29T10:24:56.562Z,20.31
2023-08-29T10:27:52.380Z,20.28
2023-08-29T10:30:54.915Z,20.24
2023-08-29T10:33:51.843Z,20.37
2023-08-29T10:36:43.615Z,20.53
2023-08-29T10:39:39.111Z,20.57
2023-08-29T10:42:36.685Z,20.53
2023-08-29T10:45:32.504Z,20.57
2023-08-29T10:48:26.770Z,20.67
2023-08-29T10:51:32.001Z,20.61
2023-08-29T10:54:31.373Z,20.88
2023-08-29T10:57:42.205Z,21.12
2023-08-29T11:00:52.700Z,21.41
2023-08-29T11:04:05.445Z,21.48
2023-08-29T11:07:17.140Z,21.54
2023-08-29T11:10:34.490Z,21.62
2023-08-29T11:13:34.888Z,21.68
2023-08-29T11:16:29.361Z,21.59
2023-08-29T11:19:39.855Z,21.50
2023-08-29T11:22:51.073Z,21.46
2023-08-29T11:25:45.365Z,21.29
2023-08-29T11:28:44.972Z,21.21
2023-08-29T11:31:36.710Z,21.22
2023-08-29T11:34:38.423Z,20.91
2023-08-29T11:37:30.473Z,20.79
2023-08-29T11:40:36.828Z,20.73
2023-08-29T11:44:39.093Z,20.60
2023-08-29T11:46:54.408Z,20.44
2023-08-29T11:49:50.517Z,20.62
2023-08-29T11:52:43.390Z,20.58
2023-08-29T11:55:49.569Z,20.82
2023-08-29T11:59:03.651Z,21.06
2023-08-29T12:05:06.004Z,21.24
2023-08-29T12:08:13.232Z,21.48
2023-08-29T12:11:17.237Z,21.67
2023-08-29T12:14:28.863Z,21.66
2023-08-29T12:20:46.907Z,21.61
2023-08-29T12:32:52.402Z,21.49
2023-08-29T12:39:05.772Z,21.60
2023-08-29T12:45:05.635Z,21.28
2023-08-29T12:48:02.693Z,21.16
2023-08-29T13:06:42.354Z,21.15
2023-08-29T13:09:38.435Z,21.32
2023-08-29T13:12:40.180Z,21.56
2023-08-29T13:15:45.283Z,21.88
2023-08-29T13:18:49.954Z,22.23
2023-08-29T13:28:07.070Z,22.99
2023-08-29T13:31:11.962Z,23.17
2023-08-29T13:37:24.723Z,23.02
2023-08-29T13:43:33.918Z,22.73
2023-08-29T13:50:00.763Z,22.47
2023-08-29T13:53:02.139Z,22.36
2023-08-29T13:56:10.639Z,22.23
2023-08-29T13:59:14.966Z,22.21
2023-08-29T14:02:21.012Z,22.20
2023-08-29T14:05:35.089Z,22.25
2023-08-29T14:08:43.354Z,22.24
2023-08-29T14:24:27.603Z,21.98
2023-08-29T14:30:42.955Z,21.88
2023-08-29T14:40:12.909Z,22.41
2023-08-29T14:49:31.687Z,22.56
2023-08-29T14:59:07.049Z,22.35
2023-08-29T15:08:24.657Z,21.96
2023-08-29T15:14:40.131Z,21.93
2023-08-29T15:18:07.312Z,22.03
2023-08-29T15:21:18.698Z,21.94
2023-08-29T15:24:24.009Z,21.93
2023-08-29T15:30:37.237Z,21.90
2023-08-29T15:33:46.434Z,21.75
2023-08-29T15:37:09.757Z,21.85
2023-08-29T15:46:29.448Z,21.86
2023-08-29T15:55:50.637Z,21.86
2023-08-29T15:58:56.016Z,21.88
2023-08-29T16:02:02.586Z,21.80
2023-08-29T16:05:05.634Z,21.72
2023-08-29T16:08:10.939Z,21.54
2023-08-29T16:17:23.342Z,21.57
2023-08-29T16:20:31.512Z,21.40
2023-08-29T16:23:36.966Z,21.40
2023-08-29T16:26:45.186Z,21.22
2023-08-29T16:29:49.327Z,21.26
2023-08-29T16:35:54.760Z,21.10
2023-08-29T16:38:53.846Z,20.88
2023-08-29T16:44:48.621Z,20.93
2023-08-29T16:50:53.365Z,20.86
2023-08-29T17:00:11.912Z,20.73
2023-08-29T17:03:12.023Z,20.65
2023-08-29T17:06:17.689Z,20.61
2023-08-29T17:09:20.172Z,20.54
2023-08-29T17:12:21.414Z,20.55
2023-08-29T17:15:21.268Z,20.56
2023-08-29T17:18:18.986Z,20.57
2023-08-29T17:21:14.178Z,20.58
2023-08-29T17:24:18.403Z,20.58
2023-08-29T17:33:30.000Z,20.46
2023-08-29T17:36:34.706Z,20.36
2023-08-29T17:42:43.433Z,20.25
2023-08-29T17:45:49.024Z,20.23
2023-08-29T17:48:45.663Z,20.11
2023-08-29T17:51:45.797Z,20.02
2023-08-29T17:54:47.644Z,19.98
2023-08-29T17:57:43.076Z,19.81
2023-08-29T18:00:43.624Z,19.81
2023-08-29T18:03:36.219Z,19.78
2023-08-29T18:06:41.942Z,19.69
2023-08-29T18:09:36.148Z,19.53
2023-08-29T18:12:33.868Z,19.43
2023-08-29T18:15:34.006Z,19.35
2023-08-29T18:18:38.192Z,19.32
2023-08-29T18:21:31.494Z,19.29
2023-08-29T18:24:32.976Z,19.26
2023-08-29T18:27:28.713Z,19.14
2023-08-29T18:30:24.831Z,19.13
2023-08-29T18:33:18.829Z,19.09
2023-08-29T18:39:27.328Z,19.05
2023-08-29T18:42:25.732Z,19.03
2023-08-29T18:45:25.509Z,18.97
2023-08-29T18:48:25.452Z,18.92
2023-08-29T18:54:24.249Z,18.87
2023-08-29T18:57:20.467Z,18.81
2023-08-29T19:00:20.440Z,18.59
2023-08-29T19:03:20.776Z,18.63
2023-08-29T19:06:36.793Z,18.46
2023-08-29T19:09:34.930Z,18.41
2023-08-29T19:15:34.508Z,18.14
2023-08-29T19:18:36.492Z,18.12
2023-08-29T19:24:38.711Z,18.07
2023-08-29T19:27:32.375Z,18.14
2023-08-29T19:30:34.592Z,18.10
2023-08-29T19:33:49.672Z,18.09
2023-08-29T19:36:47.612Z,18.07
2023-08-29T19:39:44.237Z,18.06
2023-08-29T19:42:46.033Z,18.02
2023-08-29T19:45:42.075Z,18.00
2023-08-29T19:51:46.464Z,18.01
2023-08-29T19:54:39.492Z,17.94
2023-08-29T19:57:34.024Z,17.99
2023-08-29T20:00:28.828Z,17.88
2023-08-29T20:03:18.726Z,17.85
2023-08-29T20:06:10.966Z,17.87
2023-08-29T20:09:01.019Z,17.89
2023-08-29T20:11:51.207Z,17.86
2023-08-29T20:14:49.496Z,17.89
2023-08-29T20:17:37.724Z,17.88
2023-08-29T20:20:32.464Z,17.83
2023-08-29T20:23:22.229Z,17.77
2023-08-29T20:26:18.521Z,17.76
2023-08-29T20:29:12.042Z,17.71
2023-08-29T20:32:06.345Z,17.67
2023-08-29T20:34:56.811Z,17.63
2023-08-29T20:37:50.168Z,17.56
2023-08-29T20:40:39.813Z,17.51
2023-08-29T20:43:34.887Z,17.44
2023-08-29T20:46:31.800Z,17.27
2023-08-29T20:49:25.554Z,17.25
2023-08-29T20:52:24.616Z,17.26
2023-08-29T20:55:16.075Z,17.30
2023-08-29T20:58:14.365Z,17.26
2023-08-29T21:01:14.317Z,17.22
2023-08-29T21:04:04.220Z,17.17
2023-08-29T21:06:53.145Z,17.10
2023-08-29T21:09:46.477Z,17.06
2023-08-29T21:12:37.351Z,17.08
2023-08-29T21:15:29.212Z,17.04
2023-08-29T21:18:20.366Z,16.99
2023-08-29T21:21:19.641Z,16.89
2023-08-29T21:24:07.453Z,16.90
2023-08-29T21:26:57.346Z,16.95
2023-08-29T21:29:47.945Z,16.92
2023-08-29T21:35:46.273Z,16.85
2023-08-29T21:38:39.931Z,16.84
2023-08-29T21:41:39.837Z,16.83
2023-08-29T21:44:38.347Z,16.82
2023-08-29T21:53:44.841Z,16.83
2023-08-29T21:56:47.373Z,16.79
2023-08-29T21:59:50.175Z,16.77
2023-08-29T22:02:44.751Z,16.77
2023-08-29T22:08:42.992Z,16.65
2023-08-29T22:11:40.043Z,16.61
2023-08-29T22:14:31.786Z,16.59
2023-08-29T22:20:26.968Z,16.50
2023-08-29T22:23:26.883Z,16.43
2023-08-29T22:33:10.640Z,16.39
2023-08-29T22:36:14.015Z,16.38
2023-08-29T22:39:16.482Z,16.42
2023-08-29T22:42:11.537Z,16.29
2023-08-29T22:45:06.964Z,16.14
2023-08-29T22:48:03.370Z,16.11
2023-08-29T22:50:58.927Z,16.15
2023-08-29T22:53:56.996Z,16.12
2023-08-29T22:56:57.828Z,16.12
2023-08-29T22:59:55.245Z,16.10
2023-08-29T23:02:55.157Z,16.03
2023-08-29T23:05:54.304Z,16.00
2023-08-29T23:08:47.534Z,15.95
2023-08-29T23:17:44.954Z,15.73
2023-08-29T23:20:41.754Z,15.70
2023-08-29T23:23:41.099Z,15.62
2023-08-29T23:26:40.469Z,15.60
2023-08-29T23:29:35.867Z,15.58
2023-08-29T23:35:39.796Z,15.56
2023-08-29T23:38:36.586Z,15.49
2023-08-29T23:41:37.388Z,15.41
2023-08-29T23:44:37.368Z,15.33
2023-08-29T23:47:31.477Z,15.34
2023-08-29T23:50:35.485Z,15.33
2023-08-29T23:53:32.201Z,15.28
2023-08-29T23:56:32.130Z,15.26
2023-08-29T23:59:28.261Z,15.18
